createdAt,value
2023-05-28T00:01:25.779Z,81.44
2023-05-28T00:06:27.531Z,80.22
2023-05-28T00:11:29.214Z,82.20
2023-05-28T00:16:31.004Z,81.33
2023-05-28T00:21:34.405Z,80.35
2023-05-28T00:26:38.122Z,81.56
2023-05-28T00:31:39.903Z,81.84
2023-05-28T00:36:41.643Z,82.80
2023-05-28T00:41:43.653Z,82.56
2023-05-28T00:46:46.748Z,83.64
2023-05-28T00:51:48.503Z,85.86
2023-05-28T00:56:52.196Z,85.97
2023-05-28T01:01:54.724Z,84.64
2023-05-28T01:06:58.123Z,86.25
2023-05-28T01:12:00.634Z,84.58
2023-05-28T01:17:02.378Z,83.68
2023-05-28T01:22:06.001Z,83.68
2023-05-28T01:27:08.291Z,85.04
2023-05-28T01:32:09.992Z,86.03
2023-05-28T01:37:17.233Z,87.25
2023-05-28T01:42:19.481Z,87.80
2023-05-28T01:47:22.137Z,88.64
2023-05-28T01:52:23.941Z,87.89
2023-05-28T01:57:25.812Z,86.59
2023-05-28T02:02:28.015Z,87.47
2023-05-28T02:07:29.778Z,86.86
2023-05-28T02:12:31.525Z,84.99
2023-05-28T02:17:33.403Z,86.24
2023-05-28T02:22:35.157Z,88.75
2023-05-28T02:27:37.015Z,90.72
2023-05-28T02:32:38.810Z,90.84
2023-05-28T02:37:40.546Z,89.53
2023-05-28T02:42:45.634Z,89.78
2023-05-28T02:47:48.976Z,90.18
2023-05-28T02:52:52.987Z,90.23
2023-05-28T02:57:54.708Z,89.10
2023-05-28T03:02:57.686Z,89.58
2023-05-28T03:07:59.969Z,90.44
2023-05-28T03:13:03.006Z,89.84
2023-05-28T03:18:06.875Z,91.64
2023-05-28T03:23:12.722Z,93.36
2023-05-28T03:28:33.453Z,94.24
2023-05-28T03:33:51.632Z,94.98
2023-05-28T03:38:53.469Z,93.71
2023-05-28T03:43:58.096Z,94.04
2023-05-28T03:48:59.964Z,93.54
2023-05-28T03:54:02.921Z,92.61
2023-05-28T03:59:04.812Z,91.65
2023-05-28T04:04:06.852Z,90.63
2023-05-28T04:09:09.701Z,90.41
2023-05-28T04:14:11.666Z,89.67
2023-05-28T04:19:13.415Z,89.22
2023-05-28T04:24:15.279Z,87.54
2023-05-28T04:29:17.003Z,86.05
2023-05-28T04:34:18.826Z,82.74
2023-05-28T04:39:22.745Z,83.12
2023-05-28T04:44:27.080Z,82.84
2023-05-28T04:49:30.686Z,81.46
2023-05-28T04:54:32.743Z,80.76
2023-05-28T04:59:36.088Z,78.75
2023-05-28T05:04:37.966Z,77.73
2023-05-28T05:09:40.477Z,75.95
2023-05-28T05:14:42.514Z,76.99
2023-05-28T05:19:44.663Z,75.29
2023-05-28T05:24:49.312Z,73.77
2023-05-28T05:29:51.611Z,70.89
2023-05-28T05:34:53.724Z,71.31
2023-05-28T05:40:01.428Z,70.85
2023-05-28T05:45:22.822Z,63.10
2023-05-28T05:50:27.090Z,63.87
2023-05-28T05:55:29.762Z,63.91
2023-05-28T06:00:31.904Z,59.15
2023-05-28T06:05:37.024Z,57.41
2023-05-28T06:10:59.014Z,56.21
2023-05-28T06:16:01.118Z,55.52
2023-05-28T06:21:04.590Z,54.54
2023-05-28T06:26:08.910Z,54.70
2023-05-28T06:31:11.299Z,53.61
2023-05-28T06:36:13.706Z,52.06
2023-05-28T06:41:17.164Z,53.34
2023-05-28T06:46:23.756Z,50.84
2023-05-28T06:51:26.096Z,46.33
2023-05-28T06:56:28.794Z,48.65
2023-05-28T07:01:50.178Z,49.58
2023-05-28T07:07:16.538Z,47.78
2023-05-28T07:12:19.614Z,44.57
2023-05-28T07:17:28.589Z,46.83
2023-05-28T07:22:30.757Z,46.49
2023-05-28T07:27:32.802Z,44.78
2023-05-28T07:32:35.024Z,44.39
2023-05-28T07:37:39.849Z,42.91
2023-05-28T07:42:42.752Z,42.29
2023-05-28T07:47:47.097Z,41.74
2023-05-28T07:53:09.054Z,42.37
2023-05-28T07:58:15.504Z,40.76
2023-05-28T08:03:20.881Z,41.02
2023-05-28T08:08:25.104Z,42.09
2023-05-28T08:13:27.228Z,38.25
2023-05-28T08:18:31.079Z,40.84
2023-05-28T08:23:35.717Z,39.72
2023-05-28T08:28:40.236Z,37.75
2023-05-28T08:33:42.500Z,38.25
2023-05-28T08:38:44.831Z,35.33
2023-05-28T08:43:48.927Z,37.08
2023-05-28T08:48:52.308Z,37.74
2023-05-28T08:53:55.653Z,34.77
2023-05-28T08:59:06.242Z,34.58
2023-05-28T09:04:10.114Z,35.94
2023-05-28T09:09:16.090Z,35.79
2023-05-28T09:14:24.799Z,32.84
2023-05-28T09:19:29.617Z,31.33
2023-05-28T09:24:33.474Z,32.30
2023-05-28T09:35:31.691Z,31.13
2023-05-28T09:40:40.549Z,32.36
2023-05-28T09:45:44.600Z,29.71
2023-05-28T09:50:53.350Z,31.76
2023-05-28T09:56:04.363Z,30.20
2023-05-28T10:01:16.301Z,29.09
2023-05-28T10:06:28.805Z,29.78
2023-05-28T10:11:41.865Z,29.74
2023-05-28T10:16:51.523Z,30.50
2023-05-28T10:21:56.714Z,28.65
2023-05-28T10:26:58.555Z,29.51
2023-05-28T10:32:01.902Z,28.43
2023-05-28T10:37:08.138Z,29.46
2023-05-28T10:42:14.415Z,28.38
2023-05-28T10:47:18.293Z,27.83
2023-05-28T10:52:23.341Z,28.26
2023-05-28T10:57:25.115Z,29.46
2023-05-28T11:02:29.120Z,30.25
2023-05-28T11:07:31.697Z,31.99
2023-05-28T11:12:36.986Z,29.36
2023-05-28T11:17:43.980Z,28.52
2023-05-28T11:22:46.045Z,28.00
2023-05-28T11:27:48.129Z,27.87
2023-05-28T11:32:50.776Z,28.41
2023-05-28T11:37:54.227Z,27.49
2023-05-28T11:42:59.764Z,27.90
2023-05-28T11:48:01.689Z,28.28
2023-05-28T11:53:04.617Z,26.72
2023-05-28T11:58:06.938Z,26.39
2023-05-28T12:03:12.070Z,26.67
2023-05-28T12:08:13.947Z,27.42
2023-05-28T12:13:16.405Z,27.22
2023-05-28T12:18:21.619Z,27.99
2023-05-28T12:23:23.349Z,28.00
2023-05-28T12:28:25.874Z,27.97
2023-05-28T12:33:27.910Z,29.07
2023-05-28T12:38:29.674Z,29.57
2023-05-28T12:43:31.498Z,29.65
2023-05-28T12:48:33.262Z,30.48
2023-05-28T12:53:35.060Z,29.61
2023-05-28T12:58:36.775Z,29.22
2023-05-28T13:03:38.958Z,28.14
2023-05-28T13:08:40.727Z,28.46
2023-05-28T13:13:42.475Z,27.92
2023-05-28T13:18:46.016Z,28.18
2023-05-28T13:23:47.839Z,26.01
2023-05-28T13:28:49.648Z,28.11
2023-05-28T13:33:51.527Z,26.88
2023-05-28T13:38:55.158Z,25.96
2023-05-28T13:43:57.199Z,27.57
2023-05-28T13:48:58.925Z,26.46
2023-05-28T13:54:00.682Z,27.85
2023-05-28T13:59:02.594Z,27.93
2023-05-28T14:04:04.725Z,28.46
2023-05-28T14:09:06.752Z,27.26
2023-05-28T14:14:08.491Z,27.54
2023-05-28T14:19:10.458Z,25.87
2023-05-28T14:24:12.240Z,26.79
2023-05-28T14:29:14.209Z,28.80
2023-05-28T14:34:15.994Z,27.95
2023-05-28T14:39:17.733Z,27.67
2023-05-28T14:44:19.462Z,26.49
2023-05-28T14:49:21.321Z,28.76
2023-05-28T14:54:24.014Z,27.89
2023-05-28T14:59:26.787Z,27.57
2023-05-28T15:04:28.491Z,26.44
2023-05-28T15:09:30.230Z,26.37
2023-05-28T15:14:32.117Z,25.75
2023-05-28T15:19:35.597Z,25.67
2023-05-28T15:24:38.328Z,25.64
2023-05-28T15:29:45.321Z,26.81
2023-05-28T15:34:47.164Z,26.45
2023-05-28T15:39:49.227Z,25.87
2023-05-28T15:44:51.198Z,26.04
2023-05-28T15:49:53.007Z,25.29
2023-05-28T15:54:54.921Z,25.86
2023-05-28T15:59:56.907Z,26.20
2023-05-28T16:04:58.926Z,27.35
2023-05-28T16:10:00.874Z,27.93
2023-05-28T16:15:07.204Z,27.70
2023-05-28T16:20:13.265Z,29.09
2023-05-28T16:25:15.578Z,28.95
2023-05-28T16:30:18.448Z,28.72
2023-05-28T16:35:20.762Z,29.07
2023-05-28T16:40:22.925Z,29.84
2023-05-28T16:45:24.970Z,28.72
2023-05-28T16:50:27.008Z,29.89
2023-05-28T16:55:29.014Z,30.69
2023-05-28T17:00:32.101Z,31.26
2023-05-28T17:05:34.225Z,32.13
2023-05-28T17:10:36.067Z,31.53
2023-05-28T17:15:38.019Z,31.89
2023-05-28T17:20:40.072Z,32.13
2023-05-28T17:25:42.083Z,32.59
2023-05-28T17:30:43.938Z,32.80
2023-05-28T17:35:45.734Z,32.99
2023-05-28T17:40:49.050Z,33.39
2023-05-28T17:45:54.952Z,33.68
2023-05-28T17:50:57.391Z,33.96
2023-05-28T17:55:59.328Z,34.99
2023-05-28T18:01:01.876Z,35.45
2023-05-28T18:06:04.552Z,34.60
2023-05-28T18:11:06.477Z,35.55
2023-05-28T18:16:08.554Z,36.57
2023-05-28T18:21:11.932Z,36.85
2023-05-28T18:26:14.127Z,38.58
2023-05-28T18:31:16.164Z,39.85
2023-05-28T18:36:18.000Z,41.88
2023-05-28T18:41:19.887Z,41.77
2023-05-28T18:46:21.857Z,42.71
2023-05-28T18:51:24.311Z,43.50
2023-05-28T18:56:27.642Z,44.51
2023-05-28T19:01:32.970Z,43.85
2023-05-28T19:06:37.792Z,45.74
2023-05-28T19:11:39.743Z,44.86
2023-05-28T19:16:41.645Z,42.13
2023-05-28T19:21:43.653Z,41.40
2023-05-28T19:26:45.659Z,40.65
2023-05-28T19:31:47.446Z,42.21
2023-05-28T19:36:50.518Z,43.05
2023-05-28T19:41:52.474Z,43.86
2023-05-28T19:46:55.508Z,44.04
2023-05-28T19:51:57.830Z,45.39
2023-05-28T19:56:59.886Z,45.67
2023-05-28T20:02:01.811Z,46.17
2023-05-28T20:07:03.659Z,46.51
2023-05-28T20:12:05.703Z,46.72
2023-05-28T20:17:10.076Z,47.15
2023-05-28T20:22:12.142Z,45.19
2023-05-28T20:27:14.050Z,45.69
2023-05-28T20:32:15.778Z,47.07
2023-05-28T20:37:17.902Z,49.16
2023-05-28T20:42:20.107Z,49.21
2023-05-28T20:47:22.153Z,48.73
2023-05-28T20:52:24.347Z,48.82
2023-05-28T20:57:49.444Z,48.80
2023-05-28T21:02:56.824Z,49.22
2023-05-28T21:07:58.941Z,49.99
2023-05-28T21:13:00.945Z,50.87
2023-05-28T21:18:02.692Z,51.56
2023-05-28T21:23:04.473Z,52.62
2023-05-28T21:28:07.525Z,53.87
2023-05-28T21:33:09.346Z,55.25
2023-05-28T21:38:11.156Z,55.20
2023-05-28T21:43:13.068Z,55.62
2023-05-28T21:48:15.249Z,56.02
2023-05-28T21:53:17.233Z,57.21
2023-05-28T21:58:19.207Z,57.79
2023-05-28T22:03:21.071Z,58.17
2023-05-28T22:08:22.874Z,57.88
2023-05-28T22:13:26.137Z,59.18
2023-05-28T22:18:27.806Z,60.29
2023-05-28T22:23:29.738Z,60.56
2023-05-28T22:28:31.493Z,60.96
2023-05-28T22:33:33.282Z,61.89
2023-05-28T22:38:36.354Z,62.50
2023-05-28T22:43:38.105Z,63.25
2023-05-28T22:48:40.629Z,63.95
2023-05-28T22:53:42.461Z,64.56
2023-05-28T22:58:44.228Z,64.60
2023-05-28T23:03:46.536Z,64.30
2023-05-28T23:08:48.354Z,64.98
2023-05-28T23:13:50.105Z,64.57
2023-05-28T23:18:53.080Z,65.39
2023-05-28T23:23:54.982Z,65.18
2023-05-28T23:28:56.751Z,65.96
2023-05-28T23:33:58.591Z,67.19
2023-05-28T23:39:00.489Z,66.60
2023-05-28T23:44:02.214Z,67.42
2023-05-28T23:49:04.451Z,68.67
2023-05-28T23:54:06.319Z,69.01
2023-05-28T23:59:08.634Z,68.89
